createdAt,value
2018-03-04T00:01:17.324Z,100478.96
2018-03-04T00:03:45.200Z,100486.77
2018-03-04T00:06:12.908Z,100485.81
2018-03-04T00:08:40.587Z,100490.52
2018-03-04T00:11:08.235Z,100486.92
2018-03-04T00:13:35.935Z,100485.22
2018-03-04T00:16:03.587Z,100487.23
2018-03-04T00:18:31.250Z,100485.13
2018-03-04T00:20:58.930Z,100480.22
2018-03-04T00:23:27.516Z,100492.47
2018-03-04T00:25:55.179Z,100491.69
2018-03-04T00:28:22.961Z,100490.43
2018-03-04T00:30:50.678Z,100494.77
2018-03-04T00:33:18.456Z,100485.35
2018-03-04T00:35:46.304Z,100487.58
2018-03-04T00:38:13.958Z,100482.64
2018-03-04T00:40:41.638Z,100498.62
2018-03-04T00:43:09.268Z,100496.52
2018-03-04T00:45:36.942Z,100485.31
2018-03-04T00:48:04.729Z,100495.39
2018-03-04T00:50:32.421Z,100488.34
2018-03-04T00:53:00.047Z,100486.38
2018-03-04T00:55:27.726Z,100484.80
2018-03-04T00:57:55.366Z,100487.96
2018-03-04T01:00:23.054Z,100487.67
2018-03-04T01:02:50.866Z,100484.22
2018-03-04T01:05:18.563Z,100480.83
2018-03-04T01:07:46.307Z,100473.91
2018-03-04T01:10:14.002Z,100469.71
2018-03-04T01:12:41.654Z,100467.88
2018-03-04T01:15:09.405Z,100478.94
2018-03-04T01:17:37.042Z,100464.28
2018-03-04T01:20:04.726Z,100468.72
2018-03-04T01:22:32.372Z,100468.88
2018-03-04T01:25:00.119Z,100458.73
2018-03-04T01:27:27.869Z,100463.04
2018-03-04T01:29:55.541Z,100457.86
2018-03-04T01:32:23.184Z,100457.34
2018-03-04T01:34:50.858Z,100452.16
2018-03-04T01:37:18.512Z,100451.45
2018-03-04T01:39:46.316Z,100455.93
2018-03-04T01:42:13.974Z,100443.30
2018-03-04T01:44:41.636Z,100450.99
2018-03-04T01:47:09.264Z,100449.41
2018-03-04T01:49:37.053Z,100449.73
2018-03-04T01:52:04.684Z,100442.12
2018-03-04T01:54:32.422Z,100449.83
2018-03-04T01:57:00.051Z,100452.72
2018-03-04T01:59:27.690Z,100443.38
2018-03-04T02:01:55.359Z,100447.02
2018-03-04T02:04:23.923Z,100438.81
2018-03-04T02:06:51.596Z,100452.02
2018-03-04T02:09:19.225Z,100444.69
2018-03-04T02:11:46.904Z,100444.59
2018-03-04T02:14:14.546Z,100442.99
2018-03-04T02:16:42.226Z,100436.77
2018-03-04T02:19:09.911Z,100442.56
2018-03-04T02:21:37.586Z,100437.98
2018-03-04T02:24:05.230Z,100436.73
2018-03-04T02:26:32.906Z,100427.88
2018-03-04T02:29:00.547Z,100432.69
2018-03-04T02:31:28.404Z,100425.09
2018-03-04T02:33:56.029Z,100417.66
2018-03-04T02:36:23.713Z,100419.56
2018-03-04T02:38:51.346Z,100423.73
2018-03-04T02:41:19.019Z,100420.92
2018-03-04T02:43:46.735Z,100422.84
2018-03-04T02:46:14.431Z,100419.72
2018-03-04T02:48:42.516Z,100407.67
2018-03-04T02:51:10.203Z,100404.30
2018-03-04T02:53:37.850Z,100401.70
2018-03-04T02:56:05.534Z,100398.56
2018-03-04T02:58:33.246Z,100389.55
2018-03-04T03:01:00.925Z,100392.13
2018-03-04T03:03:28.578Z,100393.59
2018-03-04T03:05:56.443Z,100396.29
2018-03-04T03:08:24.185Z,100402.64
2018-03-04T03:10:51.862Z,100406.55
2018-03-04T03:13:19.505Z,100404.98
2018-03-04T03:15:47.261Z,100402.50
2018-03-04T03:18:14.905Z,100409.91
2018-03-04T03:20:42.584Z,100407.53
2018-03-04T03:23:10.213Z,100410.14
2018-03-04T03:25:37.895Z,100410.88
2018-03-04T03:28:05.645Z,100403.61
2018-03-04T03:30:33.296Z,100410.69
2018-03-04T03:33:01.048Z,100407.41
2018-03-04T03:35:28.796Z,100400.77
2018-03-04T03:37:56.473Z,100399.97
2018-03-04T03:40:24.119Z,100393.49
2018-03-04T03:42:51.809Z,100396.39
2018-03-04T03:45:19.451Z,100397.31
2018-03-04T03:47:47.263Z,100391.03
2018-03-04T03:50:14.891Z,100381.41
2018-03-04T03:52:42.572Z,100380.57
2018-03-04T03:55:10.206Z,100372.82
2018-03-04T03:57:37.886Z,100384.07
2018-03-04T04:00:05.654Z,100369.37
2018-03-04T04:02:33.338Z,100366.86
2018-03-04T04:05:00.970Z,100354.72
2018-03-04T04:07:28.809Z,100346.83
2018-03-04T04:09:56.455Z,100353.88
2018-03-04T04:12:24.140Z,100343.73
2018-03-04T04:14:51.820Z,100344.30
2018-03-04T04:17:19.509Z,100335.02
2018-03-04T04:19:47.273Z,100336.06
2018-03-04T04:22:14.954Z,100332.53
2018-03-04T04:24:42.584Z,100331.42
2018-03-04T04:27:10.265Z,100324.83
2018-03-04T04:29:37.898Z,100323.14
2018-03-04T04:32:05.576Z,100317.78
2018-03-04T04:34:33.275Z,100318.96
2018-03-04T04:37:00.945Z,100309.18
2018-03-04T04:39:28.596Z,100298.29
2018-03-04T04:41:56.276Z,100298.23
2018-03-04T04:44:23.996Z,100293.23
2018-03-04T04:46:51.838Z,100293.61
2018-03-04T04:49:19.478Z,100290.08
2018-03-04T04:51:47.159Z,100295.53
2018-03-04T04:54:14.804Z,100303.48
2018-03-04T04:56:42.489Z,100300.43
2018-03-04T04:59:10.132Z,100317.38
2018-03-04T05:01:37.833Z,100321.98
2018-03-04T05:04:05.482Z,100323.34
2018-03-04T05:06:33.168Z,100315.97
2018-03-04T05:09:00.806Z,100323.38
2018-03-04T05:11:28.520Z,100316.25
2018-03-04T05:13:56.219Z,100310.94
2018-03-04T05:16:23.862Z,100309.60
2018-03-04T05:18:51.752Z,100307.30
2018-03-04T05:21:19.389Z,100299.64
2018-03-04T05:23:47.078Z,100299.72
2018-03-04T05:26:14.721Z,100309.49
2018-03-04T05:28:42.414Z,100300.40
2018-03-04T05:31:10.178Z,100301.59
2018-03-04T05:33:37.856Z,100295.81
2018-03-04T05:36:05.513Z,100292.08
2018-03-04T05:38:33.206Z,100289.17
2018-03-04T05:41:00.846Z,100285.97
2018-03-04T05:43:28.590Z,100288.91
2018-03-04T05:45:56.294Z,100294.31
2018-03-04T05:48:23.936Z,100287.41
2018-03-04T05:50:51.621Z,100286.25
2018-03-04T05:53:19.252Z,100279.77
2018-03-04T05:55:47.964Z,100277.81
2018-03-04T05:58:15.607Z,100273.77
2018-03-04T06:00:43.314Z,100281.28
2018-03-04T06:03:10.970Z,100268.73
2018-03-04T06:05:38.657Z,100272.97
2018-03-04T06:08:06.439Z,100278.02
2018-03-04T06:10:34.170Z,100271.80
2018-03-04T06:13:01.825Z,100271.31
2018-03-04T06:15:29.470Z,100279.24
2018-03-04T06:17:57.144Z,100279.42
2018-03-04T06:20:24.854Z,100276.81
2018-03-04T06:22:52.536Z,100270.68
2018-03-04T06:25:20.178Z,100275.24
2018-03-04T06:27:47.880Z,100272.91
2018-03-04T06:30:15.519Z,100271.59
2018-03-04T06:32:43.333Z,100262.91
2018-03-04T06:35:10.970Z,100260.55
2018-03-04T06:37:38.678Z,100243.41
2018-03-04T06:40:06.309Z,100252.01
2018-03-04T06:42:33.964Z,100252.31
2018-03-04T06:45:01.663Z,100247.13
2018-03-04T06:47:29.327Z,100251.55
2018-03-04T06:49:57.046Z,100248.91
2018-03-04T06:52:24.692Z,100249.31
2018-03-04T06:54:52.375Z,100250.06
2018-03-04T06:57:20.012Z,100249.48
2018-03-04T06:59:47.859Z,100249.30
2018-03-04T07:02:15.516Z,100238.53
2018-03-04T07:04:43.208Z,100234.64
2018-03-04T07:07:10.840Z,100245.39
2018-03-04T07:09:38.525Z,100251.91
2018-03-04T07:12:06.166Z,100246.16
2018-03-04T07:14:33.875Z,100250.01
2018-03-04T07:17:01.518Z,100248.17
2018-03-04T07:19:29.252Z,100245.95
2018-03-04T07:21:56.926Z,100232.41
2018-03-04T07:24:24.738Z,100233.25
2018-03-04T07:26:52.421Z,100239.20
2018-03-04T07:29:20.081Z,100240.05
2018-03-04T07:31:48.809Z,100235.78
2018-03-04T07:34:16.464Z,100225.69
2018-03-04T07:36:44.145Z,100234.42
2018-03-04T07:39:11.788Z,100231.56
2018-03-04T07:41:39.482Z,100230.63
2018-03-04T07:44:07.287Z,100236.59
2018-03-04T07:46:34.970Z,100235.19
2018-03-04T07:49:02.621Z,100238.94
2018-03-04T07:51:30.328Z,100234.16
2018-03-04T07:53:57.980Z,100238.99
2018-03-04T07:56:25.615Z,100236.55
2018-03-04T07:58:53.344Z,100235.14
2018-03-04T08:01:21.007Z,100230.80
2018-03-04T08:03:48.679Z,100228.52
2018-03-04T08:06:16.316Z,100233.53
2018-03-04T08:08:44.011Z,100243.70
2018-03-04T08:11:11.650Z,100209.63
2018-03-04T08:13:39.336Z,100207.98
2018-03-04T08:16:06.977Z,100207.03
2018-03-04T08:18:34.699Z,100210.08
2018-03-04T08:21:02.344Z,100211.27
2018-03-04T08:23:30.014Z,100209.38
2018-03-04T08:26:09.416Z,100212.14
2018-03-04T08:28:37.183Z,100208.70
2018-03-04T08:31:04.830Z,100212.33
2018-03-04T08:33:32.489Z,100213.34
2018-03-04T08:36:00.173Z,100210.01
2018-03-04T08:38:27.826Z,100206.80
2018-03-04T08:40:55.511Z,100193.41
2018-03-04T08:43:23.159Z,100197.83
2018-03-04T08:45:50.844Z,100182.56
2018-03-04T08:48:18.498Z,100197.53
2018-03-04T08:50:46.244Z,100185.95
2018-03-04T08:53:13.861Z,100189.17
2018-03-04T08:55:41.536Z,100193.30
2018-03-04T08:58:09.179Z,100187.69
2018-03-04T09:00:36.868Z,100188.45
2018-03-04T09:03:04.521Z,100178.33
2018-03-04T09:05:32.218Z,100184.34
2018-03-04T09:07:59.864Z,100165.09
2018-03-04T09:10:27.561Z,100170.56
2018-03-04T09:12:55.219Z,100169.37
2018-03-04T09:15:22.909Z,100177.41
2018-03-04T09:17:50.541Z,100183.80
2018-03-04T09:20:18.231Z,100173.59
2018-03-04T09:22:45.917Z,100177.26
2018-03-04T09:25:13.613Z,100180.59
2018-03-04T09:27:41.290Z,100168.55
2018-03-04T09:30:08.928Z,100168.20
2018-03-04T09:32:36.587Z,100166.20
2018-03-04T09:35:04.236Z,100171.33
2018-03-04T09:37:31.916Z,100159.03
2018-03-04T09:39:59.558Z,100159.84
2018-03-04T09:42:27.261Z,100152.02
2018-03-04T09:44:54.912Z,100153.81
2018-03-04T09:47:22.591Z,100150.56
2018-03-04T09:49:50.229Z,100151.84
2018-03-04T09:52:17.936Z,100151.47
2018-03-04T09:54:45.595Z,100152.86
2018-03-04T09:57:13.286Z,100143.13
2018-03-04T09:59:40.923Z,100149.69
2018-03-04T10:02:08.628Z,100144.86
2018-03-04T10:04:36.276Z,100139.88
2018-03-04T10:07:03.966Z,100140.95
2018-03-04T10:09:31.604Z,100144.55
2018-03-04T10:11:59.286Z,100136.98
2018-03-04T10:14:26.938Z,100134.87
2018-03-04T10:16:54.571Z,100126.25
2018-03-04T10:19:22.258Z,100110.45
2018-03-04T10:21:49.904Z,100106.64
2018-03-04T10:24:17.563Z,100104.27
2018-03-04T10:26:45.200Z,100097.87
2018-03-04T10:29:12.874Z,100098.58
2018-03-04T10:31:40.518Z,100109.23
2018-03-04T10:34:08.209Z,100100.48
2018-03-04T10:36:35.834Z,100110.17
2018-03-04T10:39:03.503Z,100101.70
2018-03-04T10:41:31.184Z,100097.31
2018-03-04T10:43:58.870Z,100085.00
2018-03-04T10:46:26.548Z,100095.72
2018-03-04T10:48:54.366Z,100092.98
2018-03-04T10:51:22.013Z,100091.60
2018-03-04T10:53:49.724Z,100086.80
2018-03-04T10:56:17.356Z,100078.28
2018-03-04T10:58:45.035Z,100073.63
2018-03-04T11:01:18.363Z,100071.47
2018-03-04T11:03:46.068Z,100060.99
2018-03-04T11:06:13.727Z,100066.64
2018-03-04T11:08:41.424Z,100072.27
2018-03-04T11:11:09.086Z,100063.90
2018-03-04T11:13:36.859Z,100074.56
2018-03-04T11:16:04.508Z,100071.11
2018-03-04T11:18:32.153Z,100062.05
2018-03-04T11:20:59.864Z,100053.83
2018-03-04T11:23:27.512Z,100059.27
2018-03-04T11:25:56.332Z,100067.66
2018-03-04T11:28:24.005Z,100049.61
2018-03-04T11:30:51.718Z,100073.09
2018-03-04T11:33:19.390Z,100049.78
2018-03-04T11:35:47.100Z,100044.66
2018-03-04T11:38:14.765Z,100046.77
2018-03-04T11:40:42.462Z,100044.27
2018-03-04T11:43:10.126Z,100036.00
2018-03-04T11:45:37.854Z,100042.86
2018-03-04T11:48:05.553Z,100037.66
2018-03-04T11:50:33.267Z,100032.86
2018-03-04T11:53:00.891Z,100038.28
2018-03-04T11:55:28.627Z,100030.27
2018-03-04T11:57:56.401Z,100029.12
2018-03-04T12:00:24.141Z,100024.26
2018-03-04T12:02:51.812Z,100013.42
2018-03-04T12:05:19.635Z,100012.55
2018-03-04T12:07:47.312Z,100007.08
2018-03-04T12:10:15.028Z,100010.33
2018-03-04T12:12:42.708Z,100013.41
2018-03-04T12:15:10.419Z,100005.66
2018-03-04T12:17:38.149Z,100000.73
2018-03-04T12:20:05.798Z,100010.44
2018-03-04T12:22:33.510Z,100019.03
2018-03-04T12:25:01.191Z,100003.25
2018-03-04T12:27:28.902Z,100005.28
2018-03-04T12:29:56.620Z,100002.10
2018-03-04T12:32:24.337Z,99992.89
2018-03-04T12:34:52.190Z,99996.69
2018-03-04T12:37:19.890Z,99984.19
2018-03-04T12:39:47.561Z,99982.64
2018-03-04T12:42:15.454Z,99967.08
2018-03-04T12:44:43.181Z,99962.23
2018-03-04T12:47:10.889Z,99966.67
2018-03-04T12:49:38.561Z,99968.03
2018-03-04T12:52:06.256Z,99963.15
2018-03-04T12:54:33.899Z,99962.00
2018-03-04T12:57:01.607Z,99958.52
2018-03-04T12:59:29.414Z,99960.23
2018-03-04T13:01:57.187Z,99956.30
2018-03-04T13:04:24.911Z,99953.23
2018-03-04T13:06:52.570Z,99946.64
2018-03-04T13:09:20.315Z,99952.59
2018-03-04T13:11:48.021Z,99947.05
2018-03-04T13:14:15.774Z,99936.47
2018-03-04T13:16:43.446Z,99938.95
2018-03-04T13:19:11.171Z,99929.09
2018-03-04T13:21:38.845Z,99924.98
2018-03-04T13:24:06.610Z,99930.97
2018-03-04T13:26:34.247Z,99922.77
2018-03-04T13:29:02.043Z,99932.53
2018-03-04T13:31:29.774Z,99929.20
2018-03-04T13:33:57.571Z,99930.89
2018-03-04T13:36:25.343Z,99928.78
2018-03-04T13:38:53.047Z,99919.39
2018-03-04T13:41:20.725Z,99910.66
2018-03-04T13:43:48.467Z,99904.22
2018-03-04T13:46:16.158Z,99891.34
2018-03-04T13:48:43.838Z,99890.45
2018-03-04T13:51:11.626Z,99871.59
2018-03-04T13:53:39.346Z,99895.92
2018-03-04T13:56:07.146Z,99896.16
2018-03-04T13:58:34.868Z,99887.32
2018-03-04T14:01:02.700Z,99881.37
2018-03-04T14:03:30.491Z,99875.38
2018-03-04T14:05:58.290Z,99880.16
2018-03-04T14:08:25.959Z,99880.67
2018-03-04T14:10:53.653Z,99883.29
2018-03-04T14:13:21.283Z,99885.84
2018-03-04T14:15:49.003Z,99876.27
2018-03-04T14:18:16.661Z,99877.91
2018-03-04T14:20:44.356Z,99887.00
2018-03-04T14:23:11.992Z,99897.64
2018-03-04T14:25:39.675Z,99895.92
2018-03-04T14:28:07.322Z,99891.17
2018-03-04T14:30:35.070Z,99894.97
2018-03-04T14:33:02.734Z,99908.22
2018-03-04T14:35:30.409Z,99898.02
2018-03-04T14:37:58.114Z,99891.27
2018-03-04T14:40:25.786Z,99886.72
2018-03-04T14:42:53.511Z,99887.12
2018-03-04T14:45:21.283Z,99873.30
2018-03-04T14:47:48.990Z,99879.13
2018-03-04T14:50:16.734Z,99864.38
2018-03-04T14:52:47.315Z,99873.73
2018-03-04T14:55:14.949Z,99873.50
2018-03-04T14:57:42.644Z,99878.53
2018-03-04T15:00:10.302Z,99870.38
2018-03-04T15:02:37.990Z,99866.95
2018-03-04T15:05:05.720Z,99864.78
2018-03-04T15:07:33.410Z,99868.02
2018-03-04T15:10:01.082Z,99860.00
2018-03-04T15:12:28.782Z,99871.96
2018-03-04T15:14:56.503Z,99877.41
2018-03-04T15:17:24.224Z,99873.41
2018-03-04T15:19:51.887Z,99872.89
2018-03-04T15:22:19.537Z,99877.44
2018-03-04T15:24:47.236Z,99866.39
2018-03-04T15:27:14.946Z,99881.23
2018-03-04T15:29:42.728Z,99872.89
2018-03-04T15:32:10.376Z,99857.09
2018-03-04T15:34:38.100Z,99850.31
2018-03-04T15:37:05.803Z,99852.31
2018-03-04T15:39:33.534Z,99856.34
2018-03-04T15:42:01.247Z,99864.36
2018-03-04T15:44:28.966Z,99856.72
2018-03-04T15:46:56.681Z,99848.70
2018-03-04T15:49:24.378Z,99839.68
2018-03-04T15:51:52.050Z,99831.94
2018-03-04T15:54:19.744Z,99834.79
2018-03-04T15:56:47.440Z,99834.97
2018-03-04T15:59:15.176Z,99841.57
2018-03-04T16:01:42.868Z,99833.31
2018-03-04T16:04:10.511Z,99836.59
2018-03-04T16:06:38.221Z,99842.09
2018-03-04T16:09:05.854Z,99834.14
2018-03-04T16:11:33.567Z,99840.13
2018-03-04T16:14:01.190Z,99844.25
2018-03-04T16:16:28.901Z,99847.97
2018-03-04T16:18:56.623Z,99838.37
2018-03-04T16:21:24.407Z,99838.51
2018-03-04T16:23:52.126Z,99827.25
2018-03-04T16:26:19.849Z,99819.44
2018-03-04T16:28:47.584Z,99812.11
2018-03-04T16:31:15.322Z,99816.66
2018-03-04T16:33:43.045Z,99820.92
2018-03-04T16:36:10.792Z,99817.38
2018-03-04T16:38:38.566Z,99821.06
2018-03-04T16:41:06.300Z,99830.59
2018-03-04T16:43:34.055Z,99816.59
2018-03-04T16:46:01.740Z,99817.14
2018-03-04T16:48:29.498Z,99822.27
2018-03-04T16:50:57.170Z,99818.03
2018-03-04T16:53:24.970Z,99816.63
2018-03-04T16:55:52.680Z,99819.20
2018-03-04T16:58:20.432Z,99815.11
2018-03-04T17:00:48.353Z,99814.05
2018-03-04T17:03:16.134Z,99804.34
2018-03-04T17:05:43.857Z,99818.28
2018-03-04T17:08:11.570Z,99818.63
2018-03-04T17:10:39.312Z,99819.45
2018-03-04T17:13:07.103Z,99828.33
2018-03-04T17:15:34.776Z,99815.91
2018-03-04T17:18:02.482Z,99813.94
2018-03-04T17:20:30.280Z,99816.73
2018-03-04T17:22:57.936Z,99825.95
2018-03-04T17:25:26.592Z,99830.63
2018-03-04T17:27:54.296Z,99830.97
2018-03-04T17:30:21.979Z,99830.59
2018-03-04T17:32:49.663Z,99821.58
2018-03-04T17:35:17.294Z,99820.82
2018-03-04T17:37:46.209Z,99821.85
2018-03-04T17:40:13.855Z,99810.67
2018-03-04T17:42:41.512Z,99806.92
2018-03-04T17:45:09.201Z,99803.41
2018-03-04T17:47:36.897Z,99804.81
2018-03-04T17:50:04.546Z,99810.16
2018-03-04T17:52:32.271Z,99809.39
2018-03-04T17:54:59.932Z,99811.56
2018-03-04T17:57:27.615Z,99807.20
2018-03-04T17:59:55.266Z,99813.11
2018-03-04T18:02:22.962Z,99817.28
2018-03-04T18:04:50.629Z,99812.70
2018-03-04T18:07:18.319Z,99807.23
2018-03-04T18:09:45.978Z,99810.57
2018-03-04T18:12:13.701Z,99801.89
2018-03-04T18:14:41.362Z,99799.01
2018-03-04T18:17:09.214Z,99785.76
2018-03-04T18:19:36.896Z,99784.90
2018-03-04T18:22:04.646Z,99784.11
2018-03-04T18:24:32.303Z,99781.05
2018-03-04T18:27:00.083Z,99768.88
2018-03-04T18:29:27.783Z,99765.13
2018-03-04T18:31:55.462Z,99762.33
2018-03-04T18:34:23.179Z,99772.16
2018-03-04T18:36:50.863Z,99776.42
2018-03-04T18:39:18.567Z,99769.94
2018-03-04T18:41:46.368Z,99764.58
2018-03-04T18:44:14.089Z,99762.61
2018-03-04T18:46:41.747Z,99758.41
2018-03-04T18:49:09.492Z,99762.14
2018-03-04T18:51:37.150Z,99754.08
2018-03-04T18:54:04.887Z,99754.01
2018-03-04T18:56:32.615Z,99754.47
2018-03-04T18:59:00.318Z,99756.63
2018-03-04T19:01:28.011Z,99756.81
2018-03-04T19:03:55.653Z,99756.49
2018-03-04T19:06:23.367Z,99741.40
2018-03-04T19:08:51.082Z,99740.72
2018-03-04T19:11:18.792Z,99752.40
2018-03-04T19:13:46.463Z,99746.69
2018-03-04T19:16:14.195Z,99746.48
2018-03-04T19:18:41.850Z,99756.69
2018-03-04T19:21:09.570Z,99751.83
2018-03-04T19:23:37.242Z,99757.13
2018-03-04T19:26:05.007Z,99758.88
2018-03-04T19:28:32.750Z,99762.43
2018-03-04T19:31:00.511Z,99759.59
2018-03-04T19:33:28.190Z,99755.36
2018-03-04T19:35:55.929Z,99760.83
2018-03-04T19:38:23.604Z,99753.98
2018-03-04T19:40:51.280Z,99748.72
2018-03-04T19:43:18.975Z,99754.55
2018-03-04T19:45:46.663Z,99749.86
2018-03-04T19:48:14.420Z,99753.80
2018-03-04T19:50:42.144Z,99754.03
2018-03-04T19:53:09.885Z,99749.32
2018-03-04T19:55:37.591Z,99741.33
2018-03-04T19:58:05.332Z,99741.13
2018-03-04T20:00:33.011Z,99734.05
2018-03-04T20:03:00.722Z,99739.38
2018-03-04T20:05:28.441Z,99738.36
2018-03-04T20:07:56.146Z,99731.55
2018-03-04T20:10:23.856Z,99725.88
2018-03-04T20:12:51.543Z,99727.17
2018-03-04T20:15:19.202Z,99725.22
2018-03-04T20:17:46.902Z,99723.68
2018-03-04T20:20:14.615Z,99727.66
2018-03-04T20:22:42.300Z,99724.91
2018-03-04T20:25:10.000Z,99724.05
2018-03-04T20:27:37.673Z,99725.13
2018-03-04T20:30:05.394Z,99721.24
2018-03-04T20:32:33.064Z,99727.30
2018-03-04T20:35:00.794Z,99725.63
2018-03-04T20:37:28.491Z,99727.64
2018-03-04T20:39:56.172Z,99718.79
2018-03-04T20:42:23.877Z,99712.27
2018-03-04T20:44:51.570Z,99719.02
2018-03-04T20:47:19.242Z,99723.25
2018-03-04T20:49:46.950Z,99725.70
2018-03-04T20:52:14.582Z,99723.14
2018-03-04T20:54:42.253Z,99731.30
2018-03-04T20:57:09.938Z,99717.56
2018-03-04T20:59:37.621Z,99729.06
2018-03-04T21:02:05.298Z,99721.66
2018-03-04T21:04:32.976Z,99718.42
2018-03-04T21:07:00.694Z,99725.14
2018-03-04T21:09:28.357Z,99724.70
2018-03-04T21:11:56.029Z,99720.37
2018-03-04T21:14:23.786Z,99717.02
2018-03-04T21:16:51.451Z,99728.78
2018-03-04T21:19:19.201Z,99722.62
2018-03-04T21:21:46.887Z,99718.41
2018-03-04T21:24:14.659Z,99717.08
2018-03-04T21:26:42.295Z,99706.73
2018-03-04T21:29:10.018Z,99708.34
2018-03-04T21:31:37.680Z,99702.95
2018-03-04T21:34:05.423Z,99694.92
2018-03-04T21:36:33.098Z,99703.23
2018-03-04T21:39:00.823Z,99705.95
2018-03-04T21:41:28.502Z,99701.70
2018-03-04T21:43:56.251Z,99705.08
2018-03-04T21:46:23.989Z,99700.66
2018-03-04T21:48:51.642Z,99703.14
2018-03-04T21:51:19.344Z,99707.50
2018-03-04T21:53:47.022Z,99704.01
2018-03-04T21:56:14.725Z,99707.83
2018-03-04T21:58:43.235Z,99707.75
2018-03-04T22:01:10.988Z,99707.42
2018-03-04T22:03:38.650Z,99706.67
2018-03-04T22:06:06.405Z,99705.93
2018-03-04T22:08:34.079Z,99707.94
2018-03-04T22:11:01.823Z,99713.48
2018-03-04T22:13:29.521Z,99705.33
2018-03-04T22:15:57.222Z,99703.18
2018-03-04T22:18:24.947Z,99695.77
2018-03-04T22:20:52.635Z,99699.75
2018-03-04T22:23:20.290Z,99697.67
2018-03-04T22:25:47.979Z,99697.55
2018-03-04T22:28:15.642Z,99695.63
2018-03-04T22:30:43.332Z,99695.12
2018-03-04T22:33:11.015Z,99691.62
2018-03-04T22:35:38.694Z,99694.23
2018-03-04T22:38:06.333Z,99691.81
2018-03-04T22:40:34.094Z,99686.38
2018-03-04T22:43:01.766Z,99692.30
2018-03-04T22:45:29.435Z,99679.27
2018-03-04T22:47:57.202Z,99695.12
2018-03-04T22:50:24.908Z,99694.82
2018-03-04T22:52:52.546Z,99693.31
2018-03-04T22:55:20.226Z,99691.95
2018-03-04T22:57:47.862Z,99692.84
2018-03-04T23:00:15.552Z,99681.73
2018-03-04T23:02:43.210Z,99676.52
2018-03-04T23:05:10.891Z,99674.25
2018-03-04T23:07:38.585Z,99672.78
2018-03-04T23:10:06.311Z,99666.62
2018-03-04T23:12:33.944Z,99661.40
2018-03-04T23:15:01.676Z,99665.19
2018-03-04T23:17:29.422Z,99662.58
2018-03-04T23:19:57.061Z,99663.09
2018-03-04T23:22:24.792Z,99656.91
2018-03-04T23:24:52.431Z,99658.97
2018-03-04T23:27:20.099Z,99657.86
2018-03-04T23:29:47.742Z,99669.41
2018-03-04T23:32:15.413Z,99662.26
2018-03-04T23:34:43.094Z,99661.20
2018-03-04T23:37:10.762Z,99663.33
2018-03-04T23:39:38.400Z,99656.21
2018-03-04T23:42:06.130Z,99649.75
2018-03-04T23:44:33.760Z,99648.47
2018-03-04T23:47:01.450Z,99649.36
2018-03-04T23:49:29.081Z,99642.59
2018-03-04T23:51:56.758Z,99637.42
2018-03-04T23:54:24.402Z,99635.30
2018-03-04T23:56:52.078Z,99646.53
2018-03-04T23:59:19.709Z,99642.14
